Time;durP1;ratioP1;P1;durP2;ratioP2;P2;SDS_P1;SDS_P2;PMS_P1;PMS_P2;Temp;Humidity;BMP_temperature;BMP_pressure;BME280_temperature;BME280_humidity;BME280_pressure;Samples;Min_cycle;Max_cycle;Signal;HPM_P1;HPM_P2
2023/05/30 00:00:07;;;;;;;;;;;;;;;;;;2212721;66;1713;-20
2023/05/30 00:02:37;;;;;;;;;;;;;;;;;;2208705;59;1989;-20
2023/05/30 00:05:09;;;;;;;;;;;;;;;;;;2205628;67;1411;-20
2023/05/30 00:07:40;;;;;;;;;;;;;;;;;;2211763;59;2143;-20
2023/05/30 00:10:10;;;;;;;;;;;;;;;;;;2212114;66;1328;-20
2023/05/30 00:12:41;;;;;;;;;;;;;;;;;;2211470;66;1421;-20
2023/05/30 00:15:12;;;;;;;;;;;;;;;;;;2211049;59;2006;-20
2023/05/30 00:17:43;;;;;;;;;;;;;;;;;;2211364;60;1151;-20
2023/05/30 00:20:13;;;;;;;;;;;;;;;;;;2212865;66;1251;-20
2023/05/30 00:22:44;;;;;;;;;;;;;;;;;;2208049;59;1994;-20
2023/05/30 00:25:14;;;;;;;;;;;;;;;;;;2209035;67;1571;-20
2023/05/30 00:27:44;;;;;;;;;;;;;;;;;;2211952;59;1411;-20
2023/05/30 00:30:15;;;;;;;;;;;;;;;;;;2211979;59;2040;-20
2023/05/30 00:32:45;;;;;;;;;;;;;;;;;;2209358;67;1687;-20
2023/05/30 00:35:15;;;;;;;;;;;;;;;;;;2212168;59;1488;-20
2023/05/30 00:37:46;;;;;;;;;;;;;;;;;;2212110;59;1094;-20
2023/05/30 00:40:16;;;;;;;;;;;;;;;;;;2211701;66;1861;-20
2023/05/30 00:42:46;;;;;;;;;;;;;;;;;;2212403;67;1994;-20
2023/05/30 00:45:17;;;;;;;;;;;;;;;;;;2212021;67;1415;-20
2023/05/30 00:47:48;;;;;;;;;;;;;;;;;;2212628;59;2143;-20
2023/05/30 00:50:18;;;;;;;;;;;;;;;;;;2211869;59;1327;-20
2023/05/30 00:52:49;;;;;;;;;;;;;;;;;;2208299;67;1472;-20
2023/05/30 00:55:20;;;;;;;;;;;;;;;;;;2212043;59;1773;-20
2023/05/30 00:57:51;;;;;;;;;;;;;;;;;;2212553;66;2370;-20
2023/05/30 01:00:24;;;;;;;;;;;;;;;;;;2212070;66;1619;-20
2023/05/30 01:02:59;;;;;;;;;;;;;;;;;;2211378;67;1956;-20
2023/05/30 01:05:31;;;;;;;;;;;;;;;;;;2201166;53;3672;-24
2023/05/30 01:08:01;;;;;;;;;;;;;;;;;;2199154;59;2360;-22
2023/05/30 01:10:36;;;;;;;;;;;;;;;;;;2199650;66;1738;-23
2023/05/30 01:13:20;;;;;;;;;;;;;;;;;;2199549;59;1794;-23
2023/05/30 01:16:03;;;;;;;;;;;;;;;;;;2197878;59;2355;-23
2023/05/30 01:18:38;;;;;;;;;;;;;;;;;;2197784;66;2642;-23
2023/05/30 01:21:10;;;;;;;;;;;;;;;;;;2198346;66;2643;-23
2023/05/30 01:24:05;;;;;;;;;;;;;;;;;;2198427;67;2702;-23
2023/05/30 01:26:54;;;;;;;;;;;;;;;;;;2198104;59;2937;-23
2023/05/30 01:29:25;;;;;;;;;;;;;;;;;;2198187;66;2885;-22
2023/05/30 01:31:57;;;;;;;;;;;;;;;;;;2197452;59;1886;-23
2023/05/30 01:34:27;;;;;;;;;;;;;;;;;;2198341;67;2601;-22
2023/05/30 01:36:57;;;;;;;;;;;;;;;;;;2197973;59;1769;-22
2023/05/30 01:39:28;;;;;;;;;;;;;;;;;;2198195;59;1109;-23
2023/05/30 01:42:08;;;;;;;;;;;;;;;;;;2198493;67;1663;-22
2023/05/30 01:44:58;;;;;;;;;;;;;;;;;;2199126;66;1942;-22
2023/05/30 01:47:35;;;;;;;;;;;;;;;;;;2197813;59;2177;-22
2023/05/30 01:50:13;;;;;;;;;;;;;;;;;;2197800;66;1261;-23
2023/05/30 01:52:50;;;;;;;;;;;;;;;;;;2198045;59;1342;-23
2023/05/30 01:55:22;;;;;;;;;;;;;;;;;;2194445;66;1775;-22
2023/05/30 01:57:53;;;;;;;;;;;;;;;;;;2197950;59;2212;-22
2023/05/30 02:00:23;;;;;;;;;;;;;;;;;;2198393;59;1154;-23
2023/05/30 02:02:53;;;;;;;;;;;;;;;;;;2197507;66;1995;-22
2023/05/30 02:05:23;;;;;;;;;;;;;;;;;;2198078;59;1363;-22
2023/05/30 02:07:54;;;;;;;;;;;;;;;;;;2199055;66;1128;-22
2023/05/30 02:10:24;;;;;;;;;;;;;;;;;;2198856;67;1648;-22
2023/05/30 02:12:54;;;;;;;;;;;;;;;;;;2197794;67;1247;-22
2023/05/30 02:15:25;;;;;;;;;;;;;;;;;;2198015;66;1281;-22
2023/05/30 02:17:55;;;;;;;;;;;;;;;;;;2198235;66;1902;-23
2023/05/30 02:20:25;;;;;;;;;;;;;;;;;;2197983;67;1134;-23
2023/05/30 02:22:55;;;;;;;;;;;;;;;;;;2197945;66;1941;-23
2023/05/30 02:25:29;;;;;;;;;;;;;;;;;;2193110;59;2343;-22
2023/05/30 02:27:59;;;;;;;;;;;;;;;;;;2198509;59;1359;-22
2023/05/30 02:30:29;;;;;;;;;;;;;;;;;;2197197;59;4934;-23
2023/05/30 02:33:00;;;;;;;;;;;;;;;;;;2198465;67;2139;-22
2023/05/30 02:35:30;;;;;;;;;;;;;;;;;;2199139;59;1835;-22
2023/05/30 02:38:01;;;;;;;;;;;;;;;;;;2197087;59;2987;-22
2023/05/30 02:40:31;;;;;;;;;;;;;;;;;;2198811;59;1933;-22
2023/05/30 02:43:01;;;;;;;;;;;;;;;;;;2198377;66;2531;-23
2023/05/30 02:45:32;;;;;;;;;;;;;;;;;;2197918;66;2639;-22
2023/05/30 02:48:02;;;;;;;;;;;;;;;;;;2201254;59;2184;-22
2023/05/30 02:50:32;;;;;;;;;;;;;;;;;;2198383;59;2392;-22
2023/05/30 02:53:03;;;;;;;;;;;;;;;;;;2199653;59;2214;-22
2023/05/30 02:55:33;;;;;;;;;;;;;;;;;;2198251;67;3002;-23
2023/05/30 02:58:03;;;;;;;;;;;;;;;;;;2198316;59;2740;-23
2023/05/30 03:00:34;;;;;;;;;;;;;;;;;;2197517;59;2647;-22
2023/05/30 03:03:04;;;;;;;;;;;;;;;;;;2198547;66;1936;-22
2023/05/30 03:05:35;;;;;;;;;;;;;;;;;;2197906;59;1756;-23
2023/05/30 03:08:05;;;;;;;;;;;;;;;;;;2198276;66;2629;-22
2023/05/30 03:10:35;;;;;;;;;;;;;;;;;;2199004;66;2618;-23
2023/05/30 03:13:05;;;;;;;;;;;;;;;;;;2198682;67;1822;-22
2023/05/30 03:15:35;;;;;;;;;;;;;;;;;;2198651;66;2024;-22
2023/05/30 03:18:06;;;;;;;;;;;;;;;;;;2198506;66;2458;-22
2023/05/30 03:20:36;;;;;;;;;;;;;;;;;;2198701;66;2496;-22
2023/05/30 03:23:10;;;;;;;;;;;;;;;;;;2199028;66;3134;-22
2023/05/30 03:25:43;;;;;;;;;;;;;;;;;;2198622;66;1957;-22
2023/05/30 03:28:13;;;;;;;;;;;;;;;;;;2197580;59;2896;-22
2023/05/30 03:30:43;;;;;;;;;;;;;;;;;;2197422;59;1721;-22
2023/05/30 03:33:14;;;;;;;;;;;;;;;;;;2196770;66;1709;-22
2023/05/30 03:35:44;;;;;;;;;;;;;;;;;;2198294;59;1358;-22
2023/05/30 03:38:14;;;;;;;;;;;;;;;;;;2197444;59;1121;-23
2023/05/30 03:40:45;;;;;;;;;;;;;;;;;;2198378;66;1242;-22
2023/05/30 03:43:15;;;;;;;;;;;;;;;;;;2196902;66;1929;-23
2023/05/30 03:45:45;;;;;;;;;;;;;;;;;;2198080;66;1685;-22
2023/05/30 03:48:15;;;;;;;;;;;;;;;;;;2197135;59;2088;-22
2023/05/30 03:50:48;;;;;;;;;;;;;;;;;;2198917;59;1372;-22
2023/05/30 03:53:21;;;;;;;;;;;;;;;;;;2198807;67;1237;-23
2023/05/30 03:55:51;;;;;;;;;;;;;;;;;;2198752;59;1249;-23
2023/05/30 03:58:22;;;;;;;;;;;;;;;;;;2197946;59;2200;-22
2023/05/30 04:00:52;;;;;;;;;;;;;;;;;;2197821;59;1918;-23
2023/05/30 04:03:22;;;;;;;;;;;;;;;;;;2198321;66;1938;-22
2023/05/30 04:05:53;;;;;;;;;;;;;;;;;;2198553;59;1195;-23
2023/05/30 04:08:23;;;;;;;;;;;;;;;;;;2197700;67;1637;-23
2023/05/30 04:10:53;;;;;;;;;;;;;;;;;;2198612;67;1116;-23
2023/05/30 04:13:23;;;;;;;;;;;;;;;;;;2198141;67;1675;-23
2023/05/30 04:15:54;;;;;;;;;;;;;;;;;;2198081;67;1792;-22
2023/05/30 04:18:24;;;;;;;;;;;;;;;;;;2198236;66;1238;-22
2023/05/30 04:20:55;;;;;;;;;;;;;;;;;;2199194;66;1436;-23
2023/05/30 04:23:25;;;;;;;;;;;;;;;;;;2199154;66;1938;-24
2023/05/30 04:25:57;;;;;;;;;;;;;;;;;;2198349;66;1518;-24
2023/05/30 04:28:28;;;;;;;;;;;;;;;;;;2198090;67;1327;-24
2023/05/30 04:30:58;;;;;;;;;;;;;;;;;;2199106;59;1398;-24
2023/05/30 04:33:28;;;;;;;;;;;;;;;;;;2198620;66;1223;-24
2023/05/30 04:35:59;;;;;;;;;;;;;;;;;;2199364;59;1890;-24
2023/05/30 04:38:32;;;;;;;;;;;;;;;;;;2198904;59;2212;-24
2023/05/30 04:41:02;;;;;;;;;;;;;;;;;;2198600;66;1283;-24
2023/05/30 04:43:44;;;;;;;;;;;;;;;;;;2198540;67;1992;-22
2023/05/30 04:46:25;;;;;;;;;;;;;;;;;;2197982;67;1726;-22
2023/05/30 04:49:06;;;;;;;;;;;;;;;;;;2198314;66;1991;-22
2023/05/30 04:51:39;;;;;;;;;;;;;;;;;;2198503;59;1635;-22
2023/05/30 04:54:20;;;;;;;;;;;;;;;;;;;;;
2023/05/30 04:56:56;;;;;;;;;;;;;;;;;;2199262;67;1177;-22
2023/05/30 04:59:29;;;;;;;;;;;;;;;;;;2198360;59;2294;-22
2023/05/30 05:02:02;;;;;;;;;;;;;;;;;;2200777;59;1274;-22
2023/05/30 05:04:35;;;;;;;;;;;;;;;;;;2199000;59;2009;-24
2023/05/30 05:07:06;;;;;;;;;;;;;;;;;;2198852;67;1296;-22
2023/05/30 05:09:39;;;;;;;;;;;;;;;;;;2198194;66;1233;-22
2023/05/30 05:12:12;;;;;;;;;;;;;;;;;;2199914;66;1655;-23
2023/05/30 05:14:48;;;;;;;;;;;;;;;;;;2198386;59;1392;-22
2023/05/30 05:17:26;;;;;;;;;;;;;;;;;;2198438;66;1661;-22
2023/05/30 05:20:00;;;;;;;;;;;;;;;;;;2198074;67;1236;-22
2023/05/30 05:22:31;;;;;;;;;;;;;;;;;;2198303;66;1510;-22
2023/05/30 05:25:11;;;;;;;;;;;;;;;;;;2197880;66;2001;-22
2023/05/30 05:27:42;;;;;;;;;;;;;;;;;;2197924;66;2028;-22
2023/05/30 05:30:13;;;;;;;;;;;;;;;;;;2198486;66;1334;-22
2023/05/30 05:32:47;;;;;;;;;;;;;;;;;;2198335;67;1730;-22
2023/05/30 05:35:20;;;;;;;;;;;;;;;;;;2198773;59;2191;-22
2023/05/30 05:37:51;;;;;;;;;;;;;;;;;;2198866;66;1233;-22
2023/05/30 05:40:22;;;;;;;;;;;;;;;;;;2199238;66;1523;-22
2023/05/30 05:42:52;;;;;;;;;;;;;;;;;;2199359;67;2110;-22
2023/05/30 05:45:40;;;;;;;;;;;;;;;;;;2196927;59;2123;-22
2023/05/30 05:48:28;;;;;;;;;;;;;;;;;;2198651;59;2261;-22
2023/05/30 05:50:59;;;;;;;;;;;;;;;;;;2199410;59;2089;-22
2023/05/30 05:53:34;;;;;;;;;;;;;;;;;;2198106;67;1266;-22
2023/05/30 05:56:08;;;;;;;;;;;;;;;;;;2197701;59;1421;-22
2023/05/30 05:58:38;;;;;;;;;;;;;;;;;;2199387;66;2257;-22
2023/05/30 06:01:14;;;;;;;;;;;;;;;;;;2198841;59;1262;-22
2023/05/30 06:04:03;;;;;;;;;;;;;;;;;;2198539;66;1987;-22
2023/05/30 06:06:46;;;;;;;;;;;;;;;;;;2198724;59;1156;-22
2023/05/30 06:09:21;;;;;;;;;;;;;;;;;;2198635;66;1551;-22
2023/05/30 06:11:52;;;;;;;;;;;;;;;;;;2198325;66;1772;-22
2023/05/30 06:14:22;;;;;;;;;;;;;;;;;;2198617;67;1310;-22
2023/05/30 06:16:54;;;;;;;;;;;;;;;;;;2199210;67;1284;-22
2023/05/30 06:19:24;;;;;;;;;;;;;;;;;;2198458;66;1282;-22
2023/05/30 06:21:57;;;;;;;;;;;;;;;;;;2197624;66;1277;-22
2023/05/30 06:24:28;;;;;;;;;;;;;;;;;;2197337;66;1977;-22
2023/05/30 06:26:59;;;;;;;;;;;;;;;;;;2198044;66;1685;-22
2023/05/30 06:29:40;;;;;;;;;;;;;;;;;;2198611;66;1143;-22
2023/05/30 06:32:17;;;;;;;;;;;;;;;;;;2198575;59;1383;-22
2023/05/30 06:34:48;;;;;;;;;;;;;;;;;;2199269;67;1527;-22
2023/05/30 06:37:29;;;;;;;;;;;;;;;;;;2198204;59;1291;-22
2023/05/30 06:40:00;;;;;;;;;;;;;;;;;;2197250;59;2007;-22
2023/05/30 06:42:34;;;;;;;;;;;;;;;;;;2199469;66;1272;-22
2023/05/30 06:45:08;;;;;;;;;;;;;;;;;;2196902;67;1995;-23
2023/05/30 06:47:39;;;;;;;;;;;;;;;;;;2197526;59;2206;-22
2023/05/30 06:50:18;;;;;;;;;;;;;;;;;;2196396;66;2365;-22
2023/05/30 06:52:53;;;;;;;;;;;;;;;;;;2198296;59;1579;-23
2023/05/30 06:55:26;;;;;;;;;;;;;;;;;;2197448;59;2778;-22
2023/05/30 06:57:59;;;;;;;;;;;;;;;;;;2196230;67;2769;-23
2023/05/30 07:00:33;;;;;;;;;;;;;;;;;;2197649;59;2149;-23
2023/05/30 07:03:07;;;;;;;;;;;;;;;;;;2196730;59;1932;-23
2023/05/30 07:05:40;;;;;;;;;;;;;;;;;;2197462;59;1273;-23
2023/05/30 07:08:20;;;;;;;;;;;;;;;;;;2196949;66;2166;-23
2023/05/30 07:10:53;;;;;;;;;;;;;;;;;;2197300;59;2694;-23
2023/05/30 07:13:29;;;;;;;;;;;;;;;;;;2197860;59;1633;-23
2023/05/30 07:16:12;;;;;;;;;;;;;;;;;;2197398;59;1922;-23
2023/05/30 07:18:54;;;;;;;;;;;;;;;;;;2197000;67;1592;-23
2023/05/30 07:21:28;;;;;;;;;;;;;;;;;;2196060;59;2308;-23
2023/05/30 07:23:59;;;;;;;;;;;;;;;;;;2198209;67;1906;-23
2023/05/30 07:26:36;;;;;;;;;;;;;;;;;;2197251;59;2026;-23
2023/05/30 07:29:07;;;;;;;;;;;;;;;;;;2197999;66;1139;-23
2023/05/30 07:31:37;;;;;;;;;;;;;;;;;;2197603;59;2272;-23
2023/05/30 07:34:07;;;;;;;;;;;;;;;;;;2194688;59;1815;-23
2023/05/30 07:36:37;;;;;;;;;;;;;;;;;;2196766;59;1268;-23
2023/05/30 07:39:08;;;;;;;;;;;;;;;;;;2199230;59;1581;-23
2023/05/30 07:41:38;;;;;;;;;;;;;;;;;;2198575;59;2810;-23
2023/05/30 07:44:08;;;;;;;;;;;;;;;;;;2196558;59;2717;-23
2023/05/30 07:46:39;;;;;;;;;;;;;;;;;;2197758;59;2199;-23
2023/05/30 07:49:09;;;;;;;;;;;;;;;;;;2196928;59;1721;-23
2023/05/30 07:51:39;;;;;;;;;;;;;;;;;;2198824;59;2025;-23
2023/05/30 07:54:09;;;;;;;;;;;;;;;;;;2198344;59;2783;-24
2023/05/30 07:56:40;;;;;;;;;;;;;;;;;;2198131;67;1738;-24
2023/05/30 07:59:10;;;;;;;;;;;;;;;;;;2197249;59;3117;-24
2023/05/30 08:01:45;;;;;;;;;;;;;;;;;;2199126;59;2668;-24
2023/05/30 08:04:15;;;;;;;;;;;;;;;;;;2197231;67;2634;-24
2023/05/30 08:06:45;;;;;;;;;;;;;;;;;;2198511;59;2420;-24
2023/05/30 08:09:16;;;;;;;;;;;;;;;;;;2197812;59;2340;-24
2023/05/30 08:11:46;;;;;;;;;;;;;;;;;;2199075;67;1816;-24
2023/05/30 08:14:16;;;;;;;;;;;;;;;;;;2198042;67;2422;-24
2023/05/30 08:16:46;;;;;;;;;;;;;;;;;;2199300;66;1741;-24
2023/05/30 08:19:17;;;;;;;;;;;;;;;;;;2197120;59;2382;-24
2023/05/30 08:21:47;;;;;;;;;;;;;;;;;;2197009;59;3169;-24
2023/05/30 08:24:17;;;;;;;;;;;;;;;;;;2197318;59;2241;-24
2023/05/30 08:26:48;;;;;;;;;;;;;;;;;;2198010;66;1979;-24
2023/05/30 08:29:18;;;;;;;;;;;;;;;;;;2196300;67;2338;-24
2023/05/30 08:31:49;;;;;;;;;;;;;;;;;;2197230;67;1938;-24
2023/05/30 08:34:19;;;;;;;;;;;;;;;;;;2196521;66;2626;-24
2023/05/30 08:36:49;;;;;;;;;;;;;;;;;;2197551;59;2551;-24
2023/05/30 08:39:19;;;;;;;;;;;;;;;;;;2197145;59;2988;-24
2023/05/30 08:41:50;;;;;;;;;;;;;;;;;;2196766;59;2425;-24
2023/05/30 08:44:20;;;;;;;;;;;;;;;;;;2196934;66;2789;-24
2023/05/30 08:46:50;;;;;;;;;;;;;;;;;;2197594;59;2890;-24
2023/05/30 08:49:21;;;;;;;;;;;;;;;;;;2197829;59;1855;-24
2023/05/30 08:51:53;;;;;;;;;;;;;;;;;;2199247;59;2162;-24
2023/05/30 08:54:28;;;;;;;;;;;;;;;;;;2197518;59;2169;-24
2023/05/30 08:57:01;;;;;;;;;;;;;;;;;;2198858;66;1819;-22
2023/05/30 08:59:31;;;;;;;;;;;;;;;;;;2198208;59;2309;-22
2023/05/30 09:02:02;;;;;;;;;;;;;;;;;;2197674;66;2464;-22
2023/05/30 09:04:32;;;;;;;;;;;;;;;;;;2198414;66;1943;-22
2023/05/30 09:07:03;;;;;;;;;;;;;;;;;;2198139;59;1786;-22
2023/05/30 09:09:34;;;;;;;;;;;;;;;;;;2199124;67;2512;-22
2023/05/30 09:12:06;;;;;;;;;;;;;;;;;;2205699;53;3611;-20
2023/05/30 09:14:36;;;;;;;;;;;;;;;;;;2213111;66;1770;-20
2023/05/30 09:17:07;;;;;;;;;;;;;;;;;;2213200;59;1657;-20
2023/05/30 09:19:38;;;;;;;;;;;;;;;;;;2213331;66;2053;-20
2023/05/30 09:22:08;;;;;;;;;;;;;;;;;;2212610;66;2383;-20
2023/05/30 09:24:59;;;;;;;;;;;;;;;;;;2212943;66;2566;-20
2023/05/30 09:27:32;;;;;;;;;;;;;;;;;;2208919;66;1633;-20
2023/05/30 09:30:09;;;;;;;;;;;;;;;;;;2212753;66;2650;-20
2023/05/30 09:32:39;;;;;;;;;;;;;;;;;;2212150;66;1471;-20
2023/05/30 09:35:10;;;;;;;;;;;;;;;;;;2213200;66;1443;-20
2023/05/30 09:37:43;;;;;;;;;;;;;;;;;;2213360;66;1237;-20
2023/05/30 09:40:19;;;;;;;;;;;;;;;;;;2215485;66;1139;-20
2023/05/30 09:42:51;;;;;;;;;;;;;;;;;;2213031;66;1227;-20
2023/05/30 09:45:22;;;;;;;;;;;;;;;;;;2212937;66;1755;-20
2023/05/30 09:47:53;;;;;;;;;;;;;;;;;;2213775;66;2238;-20
2023/05/30 09:50:23;;;;;;;;;;;;;;;;;;2212886;59;1294;-20
2023/05/30 09:52:56;;;;;;;;;;;;;;;;;;2212978;59;1373;-20
2023/05/30 09:55:27;;;;;;;;;;;;;;;;;;2213303;59;1434;-20
2023/05/30 09:57:58;;;;;;;;;;;;;;;;;;2213709;59;2173;-20
2023/05/30 10:00:29;;;;;;;;;;;;;;;;;;2213311;59;1663;-20
2023/05/30 10:02:59;;;;;;;;;;;;;;;;;;2210607;67;1943;-20
2023/05/30 10:05:30;;;;;;;;;;;;;;;;;;2212152;59;2226;-20
2023/05/30 10:08:01;;;;;;;;;;;;;;;;;;2213068;59;2166;-20
2023/05/30 10:10:32;;;;;;;;;;;;;;;;;;2214875;66;1349;-20
2023/05/30 10:13:03;;;;;;;;;;;;;;;;;;2212691;59;2128;-20
2023/05/30 10:15:34;;;;;;;;;;;;;;;;;;2208878;59;2758;-20
2023/05/30 10:18:05;;;;;;;;;;;;;;;;;;2212629;66;1606;-20
2023/05/30 10:20:38;;;;;;;;;;;;;;;;;;2209454;66;1385;-20
2023/05/30 10:23:09;;;;;;;;;;;;;;;;;;2209737;59;2056;-20
2023/05/30 10:25:43;;;;;;;;;;;;;;;;;;2210281;67;1370;-20
2023/05/30 10:28:18;;;;;;;;;;;;;;;;;;2211472;66;1650;-20
2023/05/30 10:30:49;;;;;;;;;;;;;;;;;;2210382;67;1568;-20
2023/05/30 10:33:20;;;;;;;;;;;;;;;;;;2208995;59;2218;-20
2023/05/30 10:35:50;;;;;;;;;;;;;;;;;;2213484;59;1407;-21
2023/05/30 10:38:23;;;;;;;;;;;;;;;;;;2211525;59;2129;-20
2023/05/30 10:41:00;;;;;;;;;;;;;;;;;;2208561;59;2714;-20
2023/05/30 10:43:36;;;;;;;;;;;;;;;;;;2212662;66;1942;-20
2023/05/30 10:46:06;;;;;;;;;;;;;;;;;;2211160;59;2169;-19
2023/05/30 10:48:50;;;;;;;;;;;;;;;;;;2212301;66;2226;-20
2023/05/30 10:51:20;;;;;;;;;;;;;;;;;;2212094;59;1548;-20
2023/05/30 10:53:51;;;;;;;;;;;;;;;;;;2213271;59;1233;-21
2023/05/30 10:56:40;;;;;;;;;;;;;;;;;;2211589;59;2161;-20
2023/05/30 10:59:14;;;;;;;;;;;;;;;;;;2211620;59;2444;-20
2023/05/30 11:01:56;;;;;;;;;;;;;;;;;;2213116;59;1883;-20
2023/05/30 11:04:32;;;;;;;;;;;;;;;;;;2211787;59;2084;-20
2023/05/30 11:07:04;;;;;;;;;;;;;;;;;;2212830;66;1631;-20
2023/05/30 11:09:41;;;;;;;;;;;;;;;;;;2211848;66;1314;-20
2023/05/30 11:12:19;;;;;;;;;;;;;;;;;;2210772;59;2276;-21
2023/05/30 11:14:56;;;;;;;;;;;;;;;;;;2211909;59;1978;-21
2023/05/30 11:17:33;;;;;;;;;;;;;;;;;;2208853;66;1208;-21
2023/05/30 11:20:14;;;;;;;;;;;;;;;;;;2209122;67;1268;-21
2023/05/30 11:22:59;;;;;;;;;;;;;;;;;;2212749;66;1312;-21
2023/05/30 11:25:32;;;;;;;;;;;;;;;;;;2213065;66;1464;-22
2023/05/30 11:28:12;;;;;;;;;;;;;;;;;;2216360;66;1575;-22
2023/05/30 11:30:46;;;;;;;;;;;;;;;;;;2215330;59;2196;-22
2023/05/30 11:33:17;;;;;;;;;;;;;;;;;;2214697;66;1365;-22
2023/05/30 11:35:48;;;;;;;;;;;;;;;;;;2217141;59;1264;-21
2023/05/30 11:38:19;;;;;;;;;;;;;;;;;;2216296;59;2165;-22
2023/05/30 11:40:50;;;;;;;;;;;;;;;;;;2217488;66;1198;-22
2023/05/30 11:43:20;;;;;;;;;;;;;;;;;;2214750;59;2354;-21
2023/05/30 11:45:53;;;;;;;;;;;;;;;;;;2210201;59;2254;-22
2023/05/30 11:48:23;;;;;;;;;;;;;;;;;;2208603;59;2277;-23
2023/05/30 11:50:54;;;;;;;;;;;;;;;;;;2208808;58;1912;-22
2023/05/30 11:53:24;;;;;;;;;;;;;;;;;;2211371;59;1454;-21
2023/05/30 11:55:55;;;;;;;;;;;;;;;;;;2207402;59;1707;-21
2023/05/30 11:58:25;;;;;;;;;;;;;;;;;;2211725;59;2168;-21
2023/05/30 12:00:56;;;;;;;;;;;;;;;;;;2211921;59;1264;-21
2023/05/30 12:03:26;;;;;;;;;;;;;;;;;;2209645;67;2282;-21
2023/05/30 12:05:57;;;;;;;;;;;;;;;;;;2207429;59;2363;-21
2023/05/30 12:08:27;;;;;;;;;;;;;;;;;;2212767;66;1751;-21
2023/05/30 12:10:57;;;;;;;;;;;;;;;;;;2210441;59;3078;-21
2023/05/30 12:13:28;;;;;;;;;;;;;;;;;;2212424;59;2528;-21
2023/05/30 12:15:58;;;;;;;;;;;;;;;;;;2213249;59;2104;-21
2023/05/30 12:18:28;;;;;;;;;;;;;;;;;;2208957;66;2311;-21
2023/05/30 12:21:00;;;;;;;;;;;;;;;;;;2213932;66;1805;-21
2023/05/30 12:23:30;;;;;;;;;;;;;;;;;;2208228;66;2731;-21
2023/05/30 12:26:01;;;;;;;;;;;;;;;;;;2211995;66;1738;-21
2023/05/30 12:28:32;;;;;;;;;;;;;;;;;;2212230;66;1962;-21
2023/05/30 12:31:03;;;;;;;;;;;;;;;;;;2212633;66;1344;-21
2023/05/30 12:33:33;;;;;;;;;;;;;;;;;;2212461;59;2832;-23
2023/05/30 12:36:06;;;;;;;;;;;;;;;;;;2212545;59;1659;-21
2023/05/30 12:38:37;;;;;;;;;;;;;;;;;;2208967;59;1407;-21
2023/05/30 12:41:07;;;;;;;;;;;;;;;;;;2212790;66;1630;-21
2023/05/30 12:43:38;;;;;;;;;;;;;;;;;;2212569;66;2000;-21
2023/05/30 12:46:13;;;;;;;;;;;;;;;;;;2212353;66;1161;-21
2023/05/30 12:48:43;;;;;;;;;;;;;;;;;;2212954;59;2518;-21
2023/05/30 12:51:14;;;;;;;;;;;;;;;;;;2208650;59;1326;-21
2023/05/30 12:53:44;;;;;;;;;;;;;;;;;;2209396;59;1482;-21
2023/05/30 12:56:14;;;;;;;;;;;;;;;;;;2211911;66;1870;-21
2023/05/30 12:58:44;;;;;;;;;;;;;;;;;;2212458;59;2175;-21
2023/05/30 13:01:15;;;;;;;;;;;;;;;;;;2212852;59;1756;-21
2023/05/30 13:03:48;;;;;;;;;;;;;;;;;;2212310;66;1919;-21
2023/05/30 13:06:21;;;;;;;;;;;;;;;;;;2208801;59;3034;-21
2023/05/30 13:08:51;;;;;;;;;;;;;;;;;;2212102;66;2499;-21
2023/05/30 13:11:22;;;;;;;;;;;;;;;;;;2208710;66;1951;-21
2023/05/30 13:13:52;;;;;;;;;;;;;;;;;;2212012;59;3283;-24
2023/05/30 13:16:23;;;;;;;;;;;;;;;;;;2209780;66;2811;-22
2023/05/30 13:18:53;;;;;;;;;;;;;;;;;;2209399;67;2782;-21
2023/05/30 13:21:26;;;;;;;;;;;;;;;;;;2211803;66;1891;-21
2023/05/30 13:23:56;;;;;;;;;;;;;;;;;;2212051;62;2157;-21
2023/05/30 13:26:26;;;;;;;;;;;;;;;;;;2212019;66;1631;-21
2023/05/30 13:28:57;;;;;;;;;;;;;;;;;;2209070;67;2591;-21
2023/05/30 13:31:27;;;;;;;;;;;;;;;;;;2213470;59;2328;-21
2023/05/30 13:34:01;;;;;;;;;;;;;;;;;;2214160;66;1762;-20
2023/05/30 13:36:31;;;;;;;;;;;;;;;;;;2212516;59;2332;-21
2023/05/30 13:39:02;;;;;;;;;;;;;;;;;;2209424;59;1968;-21
2023/05/30 13:41:32;;;;;;;;;;;;;;;;;;2206637;66;1926;-21
2023/05/30 13:44:02;;;;;;;;;;;;;;;;;;2210482;67;2363;-21
2023/05/30 13:46:32;;;;;;;;;;;;;;;;;;2212164;59;2565;-20
2023/05/30 13:49:05;;;;;;;;;;;;;;;;;;2212654;66;2344;-21
2023/05/30 13:51:36;;;;;;;;;;;;;;;;;;2212848;59;2537;-22
2023/05/30 13:54:07;;;;;;;;;;;;;;;;;;2213553;59;1657;-20
2023/05/30 13:56:37;;;;;;;;;;;;;;;;;;2209231;66;1885;-20
2023/05/30 13:59:07;;;;;;;;;;;;;;;;;;2213431;59;2119;-21
2023/05/30 14:01:38;;;;;;;;;;;;;;;;;;2212429;59;3127;-20
2023/05/30 14:04:08;;;;;;;;;;;;;;;;;;2213881;66;1984;-21
2023/05/30 14:06:39;;;;;;;;;;;;;;;;;;2209657;66;2198;-21
2023/05/30 14:09:09;;;;;;;;;;;;;;;;;;2211966;59;2855;-21
2023/05/30 14:11:39;;;;;;;;;;;;;;;;;;2212815;59;2541;-20
2023/05/30 14:14:09;;;;;;;;;;;;;;;;;;2209063;67;2069;-21
2023/05/30 14:16:40;;;;;;;;;;;;;;;;;;2213379;66;2118;-21
2023/05/30 14:19:11;;;;;;;;;;;;;;;;;;2212484;66;1778;-21
2023/05/30 14:21:41;;;;;;;;;;;;;;;;;;2212934;66;2802;-21
2023/05/30 14:24:11;;;;;;;;;;;;;;;;;;2212530;59;1998;-21
2023/05/30 14:26:45;;;;;;;;;;;;;;;;;;2212972;59;2842;-21
2023/05/30 14:29:15;;;;;;;;;;;;;;;;;;2212856;66;2719;-21
2023/05/30 14:31:46;;;;;;;;;;;;;;;;;;2212993;59;2509;-21
2023/05/30 14:34:16;;;;;;;;;;;;;;;;;;2211494;66;2670;-21
2023/05/30 14:36:46;;;;;;;;;;;;;;;;;;2214200;59;1764;-23
2023/05/30 14:39:16;;;;;;;;;;;;;;;;;;2213786;59;2770;-21
2023/05/30 14:41:46;;;;;;;;;;;;;;;;;;2212775;59;2252;-21
2023/05/30 14:44:17;;;;;;;;;;;;;;;;;;2212079;66;2559;-21
2023/05/30 14:46:47;;;;;;;;;;;;;;;;;;2212376;66;1194;-21
2023/05/30 14:49:19;;;;;;;;;;;;;;;;;;2211681;59;1261;-21
2023/05/30 14:51:50;;;;;;;;;;;;;;;;;;2212457;59;1777;-21
2023/05/30 14:54:20;;;;;;;;;;;;;;;;;;2212356;66;1681;-21
2023/05/30 14:56:51;;;;;;;;;;;;;;;;;;2213208;66;1286;-21
2023/05/30 14:59:21;;;;;;;;;;;;;;;;;;2212281;59;2126;-21
2023/05/30 15:01:51;;;;;;;;;;;;;;;;;;2209376;59;1285;-21
2023/05/30 15:04:22;;;;;;;;;;;;;;;;;;2208257;59;1988;-21
2023/05/30 15:06:53;;;;;;;;;;;;;;;;;;2206674;66;2674;-23
2023/05/30 15:09:24;;;;;;;;;;;;;;;;;;2211038;62;2183;-21
2023/05/30 15:11:54;;;;;;;;;;;;;;;;;;2212664;59;1787;-21
2023/05/30 15:14:25;;;;;;;;;;;;;;;;;;2213629;66;2313;-21
2023/05/30 15:16:55;;;;;;;;;;;;;;;;;;2209050;59;2782;-21
2023/05/30 15:19:25;;;;;;;;;;;;;;;;;;2213564;66;1998;-21
2023/05/30 15:21:56;;;;;;;;;;;;;;;;;;2212491;66;2551;-21
2023/05/30 15:24:27;;;;;;;;;;;;;;;;;;2212569;59;3469;-21
2023/05/30 15:26:57;;;;;;;;;;;;;;;;;;2212630;66;2672;-22
2023/05/30 15:29:28;;;;;;;;;;;;;;;;;;2213623;66;3198;-21
2023/05/30 15:31:58;;;;;;;;;;;;;;;;;;2212884;58;2619;-21
2023/05/30 15:34:29;;;;;;;;;;;;;;;;;;2212795;66;2532;-21
2023/05/30 15:37:01;;;;;;;;;;;;;;;;;;2212978;59;2110;-21
2023/05/30 15:39:31;;;;;;;;;;;;;;;;;;2210197;59;1678;-21
2023/05/30 15:42:02;;;;;;;;;;;;;;;;;;2213561;66;1855;-21
2023/05/30 15:44:34;;;;;;;;;;;;;;;;;;2213206;66;1921;-21
2023/05/30 15:47:05;;;;;;;;;;;;;;;;;;2213164;59;2081;-21
2023/05/30 15:49:36;;;;;;;;;;;;;;;;;;2209560;59;1823;-21
2023/05/30 15:52:06;;;;;;;;;;;;;;;;;;2209329;67;1893;-21
2023/05/30 15:54:36;;;;;;;;;;;;;;;;;;2209494;59;1708;-21
2023/05/30 15:57:09;;;;;;;;;;;;;;;;;;2209846;67;1173;-22
2023/05/30 15:59:39;;;;;;;;;;;;;;;;;;2209827;66;2078;-22
2023/05/30 16:02:09;;;;;;;;;;;;;;;;;;2213014;66;1700;-22
2023/05/30 16:04:40;;;;;;;;;;;;;;;;;;2212453;66;1984;-21
2023/05/30 16:07:11;;;;;;;;;;;;;;;;;;2211925;66;1746;-21
2023/05/30 16:09:42;;;;;;;;;;;;;;;;;;2212618;66;2662;-22
2023/05/30 16:12:12;;;;;;;;;;;;;;;;;;2211664;59;3223;-21
2023/05/30 16:14:42;;;;;;;;;;;;;;;;;;2212863;66;1786;-23
2023/05/30 16:17:13;;;;;;;;;;;;;;;;;;2209379;67;2517;-23
2023/05/30 16:19:43;;;;;;;;;;;;;;;;;;2212638;66;2842;-23
2023/05/30 16:22:13;;;;;;;;;;;;;;;;;;2213340;66;2980;-23
2023/05/30 16:24:43;;;;;;;;;;;;;;;;;;2213213;59;2604;-23
2023/05/30 16:27:15;;;;;;;;;;;;;;;;;;2213248;66;1167;-23
2023/05/30 16:29:45;;;;;;;;;;;;;;;;;;2214805;66;2422;-23
2023/05/30 16:32:15;;;;;;;;;;;;;;;;;;2214083;59;1380;-23
2023/05/30 16:34:46;;;;;;;;;;;;;;;;;;2212595;66;2042;-23
2023/05/30 16:37:17;;;;;;;;;;;;;;;;;;2212933;59;1993;-23
2023/05/30 16:39:47;;;;;;;;;;;;;;;;;;2213175;59;1683;-23
2023/05/30 16:42:18;;;;;;;;;;;;;;;;;;2208327;67;1920;-23
2023/05/30 16:44:48;;;;;;;;;;;;;;;;;;2213598;66;1943;-23
2023/05/30 16:47:18;;;;;;;;;;;;;;;;;;2212247;66;2169;-23
2023/05/30 16:49:48;;;;;;;;;;;;;;;;;;2212416;59;1279;-23
2023/05/30 16:52:18;;;;;;;;;;;;;;;;;;2212126;59;1429;-23
2023/05/30 16:54:49;;;;;;;;;;;;;;;;;;2210605;59;1768;-23
2023/05/30 16:57:22;;;;;;;;;;;;;;;;;;2212264;66;1709;-23
2023/05/30 16:59:52;;;;;;;;;;;;;;;;;;2213028;59;2122;-23
2023/05/30 17:02:22;;;;;;;;;;;;;;;;;;2211851;59;1687;-22
2023/05/30 17:04:53;;;;;;;;;;;;;;;;;;2210046;66;1941;-22
2023/05/30 17:07:23;;;;;;;;;;;;;;;;;;2212880;66;1331;-22
2023/05/30 17:09:53;;;;;;;;;;;;;;;;;;2210337;66;3064;-22
2023/05/30 17:12:24;;;;;;;;;;;;;;;;;;2211523;59;2293;-22
2023/05/30 17:14:54;;;;;;;;;;;;;;;;;;2213364;66;2296;-22
2023/05/30 17:17:24;;;;;;;;;;;;;;;;;;2213538;66;3469;-22
2023/05/30 17:19:54;;;;;;;;;;;;;;;;;;2214576;66;1647;-22
2023/05/30 17:22:27;;;;;;;;;;;;;;;;;;2212815;59;2770;-23
2023/05/30 17:24:58;;;;;;;;;;;;;;;;;;2214119;66;2445;-21
2023/05/30 17:27:28;;;;;;;;;;;;;;;;;;2210294;66;2715;-22
2023/05/30 17:29:59;;;;;;;;;;;;;;;;;;2210439;66;2300;-22
2023/05/30 17:32:32;;;;;;;;;;;;;;;;;;2212980;59;2012;-22
2023/05/30 17:35:02;;;;;;;;;;;;;;;;;;2213162;66;2311;-22